Weather at Tinajeros Airfield

Public forecast

Using degrees Celsius for public forecast. Weather courtesy of forecast.io.

Closest aviation weather report (METAR) to Tinajeros Airfield

Closest report is Albacete Airport / Los Llanos Air Base, 11.2 nm (20.7 km) SW. Retrieved 2021/06/21 10:30 UTC (0 seconds ago):

LEAB 211030Z 27011KT 9999 SCT045 21/10 Q1014 NOSIG

Closest aviation forecast (TAF) to Tinajeros Airfield

Closest forecast is Albacete Airport / Los Llanos Air Base, 11.2 nm (20.7 km) SW. Retrieved 2021/06/21 06:29 UTC (4 hours ago):

TAF LEAB 210500Z 2106/2206 28010KT CAVOK TX26/2115Z TN13/2205Z TEMPO 2106/2110 VRB05KT PROB40 TEMPO 2111/2120 28015G25KT BECMG 2120/2122 VRB05KT